sensor_id;sensor_type;location;lat;lon;timestamp;pressure;altitude;pressure_sealevel;temperature;humidity
8253;BME280;61313;48.396;10.008;2023-03-15T00:01:14;95528.34;;;6.18;63.58
8253;BME280;61313;48.396;10.008;2023-03-15T00:07:01;95546.59;;;6.18;64.10
8253;BME280;61313;48.396;10.008;2023-03-15T00:09:27;95551.00;;;6.15;64.07
8253;BME280;61313;48.396;10.008;2023-03-15T00:11:52;95553.78;;;6.11;64.59
8253;BME280;61313;48.396;10.008;2023-03-15T00:14:19;95554.09;;;6.25;63.85
8253;BME280;61313;48.396;10.008;2023-03-15T00:16:44;95558.47;;;6.25;63.91
8253;BME280;61313;48.396;10.008;2023-03-15T00:19:10;95565.25;;;6.29;64.04
8253;BME280;61313;48.396;10.008;2023-03-15T00:21:36;95564.81;;;6.18;64.66
8253;BME280;61313;48.396;10.008;2023-03-15T00:24:01;95567.38;;;6.19;65.25
8253;BME280;61313;48.396;10.008;2023-03-15T00:26:27;95571.06;;;6.13;65.66
8253;BME280;61313;48.396;10.008;2023-03-15T00:28:53;95574.59;;;6.12;65.84
8253;BME280;61313;48.396;10.008;2023-03-15T00:31:22;95581.91;;;6.03;65.79
8253;BME280;61313;48.396;10.008;2023-03-15T00:33:48;95583.97;;;6.17;65.38
8253;BME280;61313;48.396;10.008;2023-03-15T00:36:14;95581.97;;;6.23;62.51
8253;BME280;61313;48.396;10.008;2023-03-15T00:38:41;95591.97;;;6.12;61.77
8253;BME280;61313;48.396;10.008;2023-03-15T00:41:11;95598.75;;;5.94;61.81
8253;BME280;61313;48.396;10.008;2023-03-15T00:43:37;95607.09;;;6.02;61.05
8253;BME280;61313;48.396;10.008;2023-03-15T00:46:03;95613.72;;;5.87;61.19
8253;BME280;61313;48.396;10.008;2023-03-15T00:48:30;95612.25;;;5.80;61.58
8253;BME280;61313;48.396;10.008;2023-03-15T00:51:07;95623.94;;;5.92;61.09
8253;BME280;61313;48.396;10.008;2023-03-15T00:53:35;95639.13;;;5.81;61.49
8253;BME280;61313;48.396;10.008;2023-03-15T00:56:09;95649.09;;;5.69;60.60
8253;BME280;61313;48.396;10.008;2023-03-15T00:58:35;95657.59;;;5.75;61.23
8253;BME280;61313;48.396;10.008;2023-03-15T01:01:05;95671.00;;;5.64;61.34
8253;BME280;61313;48.396;10.008;2023-03-15T01:03:31;95681.81;;;5.77;60.87
8253;BME280;61313;48.396;10.008;2023-03-15T01:05:56;95691.09;;;5.84;60.41
8253;BME280;61313;48.396;10.008;2023-03-15T01:08:22;95690.94;;;5.65;60.34
8253;BME280;61313;48.396;10.008;2023-03-15T01:10:48;95697.41;;;5.53;61.25
8253;BME280;61313;48.396;10.008;2023-03-15T01:13:14;95703.22;;;5.60;61.23
8253;BME280;61313;48.396;10.008;2023-03-15T01:15:39;95712.38;;;5.46;61.83
8253;BME280;61313;48.396;10.008;2023-03-15T01:18:09;95712.66;;;5.39;62.66
8253;BME280;61313;48.396;10.008;2023-03-15T01:20:34;95712.69;;;4.85;62.41
8253;BME280;61313;48.396;10.008;2023-03-15T01:23:00;95716.16;;;5.13;63.46
8253;BME280;61313;48.396;10.008;2023-03-15T01:25:25;95726.78;;;5.05;62.55
8253;BME280;61313;48.396;10.008;2023-03-15T01:27:51;95725.75;;;5.11;62.58
8253;BME280;61313;48.396;10.008;2023-03-15T01:30:16;95729.84;;;5.18;62.52
8253;BME280;61313;48.396;10.008;2023-03-15T01:32:41;95734.13;;;5.19;63.12
8253;BME280;61313;48.396;10.008;2023-03-15T01:35:07;95734.09;;;5.20;62.55
8253;BME280;61313;48.396;10.008;2023-03-15T01:37:33;95745.38;;;5.19;62.53
8253;BME280;61313;48.396;10.008;2023-03-15T01:39:58;95749.31;;;5.06;62.92
8253;BME280;61313;48.396;10.008;2023-03-15T01:42:24;95745.69;;;5.10;62.43
8253;BME280;61313;48.396;10.008;2023-03-15T01:44:55;95769.16;;;5.08;62.57
8253;BME280;61313;48.396;10.008;2023-03-15T01:47:21;95779.63;;;5.05;63.31
8253;BME280;61313;48.396;10.008;2023-03-15T01:49:54;95783.41;;;5.23;63.05
8253;BME280;61313;48.396;10.008;2023-03-15T01:52:28;95800.34;;;4.82;64.16
8253;BME280;61313;48.396;10.008;2023-03-15T01:54:59;95805.16;;;4.94;64.18
8253;BME280;61313;48.396;10.008;2023-03-15T01:57:36;95818.66;;;5.05;63.48
8253;BME280;61313;48.396;10.008;2023-03-15T02:00:09;95825.72;;;5.02;64.17
8253;BME280;61313;48.396;10.008;2023-03-15T02:02:39;95830.06;;;5.01;64.15
8253;BME280;61313;48.396;10.008;2023-03-15T02:05:14;95832.44;;;5.07;63.38
8253;BME280;61313;48.396;10.008;2023-03-15T02:07:42;95841.13;;;5.08;62.00
8253;BME280;61313;48.396;10.008;2023-03-15T02:10:17;95841.06;;;5.09;61.35
8253;BME280;61313;48.396;10.008;2023-03-15T02:12:46;95850.78;;;5.03;61.07
8253;BME280;61313;48.396;10.008;2023-03-15T02:15:16;95842.25;;;4.99;60.89
8253;BME280;61313;48.396;10.008;2023-03-15T02:17:44;95839.94;;;4.90;60.31
8253;BME280;61313;48.396;10.008;2023-03-15T02:22:52;95861.19;;;5.03;59.82
8253;BME280;61313;48.396;10.008;2023-03-15T02:25:27;95859.13;;;5.14;59.06
8253;BME280;61313;48.396;10.008;2023-03-15T02:27:57;95872.47;;;5.03;60.18
8253;BME280;61313;48.396;10.008;2023-03-15T02:30:23;95876.88;;;5.01;59.95
8253;BME280;61313;48.396;10.008;2023-03-15T02:32:48;95883.22;;;4.91;60.21
8253;BME280;61313;48.396;10.008;2023-03-15T02:35:26;95879.78;;;4.91;61.60
8253;BME280;61313;48.396;10.008;2023-03-15T02:37:52;95886.25;;;4.77;61.43
8253;BME280;61313;48.396;10.008;2023-03-15T02:40:20;95891.31;;;4.82;61.22
8253;BME280;61313;48.396;10.008;2023-03-15T02:42:47;95897.00;;;4.95;61.39
8253;BME280;61313;48.396;10.008;2023-03-15T02:45:15;95899.72;;;4.90;60.42
8253;BME280;61313;48.396;10.008;2023-03-15T02:47:42;95907.03;;;5.07;59.89
8253;BME280;61313;48.396;10.008;2023-03-15T02:50:09;95915.63;;;5.09;60.21
8253;BME280;61313;48.396;10.008;2023-03-15T02:52:35;95909.75;;;5.02;60.63
8253;BME280;61313;48.396;10.008;2023-03-15T02:55:00;95920.56;;;4.88;61.43
8253;BME280;61313;48.396;10.008;2023-03-15T02:57:26;95919.75;;;4.86;61.64
8253;BME280;61313;48.396;10.008;2023-03-15T02:59:52;95927.03;;;4.75;61.70
8253;BME280;61313;48.396;10.008;2023-03-15T03:02:19;95932.41;;;4.99;61.89
8253;BME280;61313;48.396;10.008;2023-03-15T03:04:45;95951.69;;;4.92;61.66
8253;BME280;61313;48.396;10.008;2023-03-15T03:07:11;95956.44;;;5.07;61.97
8253;BME280;61313;48.396;10.008;2023-03-15T03:09:36;95968.19;;;5.20;60.73
8253;BME280;61313;48.396;10.008;2023-03-15T03:12:02;95975.28;;;5.15;61.87
8253;BME280;61313;48.396;10.008;2023-03-15T03:14:27;95979.88;;;5.05;62.75
8253;BME280;61313;48.396;10.008;2023-03-15T03:16:53;95984.03;;;5.13;61.40
8253;BME280;61313;48.396;10.008;2023-03-15T03:19:18;95991.53;;;4.92;61.45
8253;BME280;61313;48.396;10.008;2023-03-15T03:21:44;96000.41;;;4.85;62.86
8253;BME280;61313;48.396;10.008;2023-03-15T03:24:10;95999.22;;;4.97;62.29
8253;BME280;61313;48.396;10.008;2023-03-15T03:26:36;96008.69;;;4.99;61.22
8253;BME280;61313;48.396;10.008;2023-03-15T03:29:03;96011.31;;;4.98;59.84
8253;BME280;61313;48.396;10.008;2023-03-15T03:31:30;96013.03;;;4.99;59.37
8253;BME280;61313;48.396;10.008;2023-03-15T03:33:58;96014.00;;;4.95;60.12
8253;BME280;61313;48.396;10.008;2023-03-15T03:36:23;96026.03;;;4.99;59.88
8253;BME280;61313;48.396;10.008;2023-03-15T03:38:49;96023.63;;;4.91;59.10
8253;BME280;61313;48.396;10.008;2023-03-15T03:41:15;96020.53;;;4.78;58.89
8253;BME280;61313;48.396;10.008;2023-03-15T03:43:41;96019.38;;;4.56;59.77
8253;BME280;61313;48.396;10.008;2023-03-15T03:46:07;96022.22;;;4.79;59.00
8253;BME280;61313;48.396;10.008;2023-03-15T03:48:33;96024.41;;;4.63;59.33
8253;BME280;61313;48.396;10.008;2023-03-15T03:50:58;96023.28;;;4.72;58.72
8253;BME280;61313;48.396;10.008;2023-03-15T03:53:24;96020.53;;;4.78;57.08
8253;BME280;61313;48.396;10.008;2023-03-15T03:55:49;96020.78;;;4.67;58.14
8253;BME280;61313;48.396;10.008;2023-03-15T03:58:15;96032.78;;;4.40;57.97
8253;BME280;61313;48.396;10.008;2023-03-15T04:00:41;96028.78;;;4.27;58.91
8253;BME280;61313;48.396;10.008;2023-03-15T04:03:07;96034.06;;;4.58;58.97
8253;BME280;61313;48.396;10.008;2023-03-15T04:05:33;96033.97;;;4.61;58.81
8253;BME280;61313;48.396;10.008;2023-03-15T04:07:58;96044.41;;;4.60;58.04
8253;BME280;61313;48.396;10.008;2023-03-15T04:10:24;96048.84;;;4.89;57.58
8253;BME280;61313;48.396;10.008;2023-03-15T04:12:55;96057.84;;;5.08;56.44
8253;BME280;61313;48.396;10.008;2023-03-15T04:15:22;96061.44;;;5.03;56.90
8253;BME280;61313;48.396;10.008;2023-03-15T04:17:48;96066.22;;;5.18;57.05
8253;BME280;61313;48.396;10.008;2023-03-15T04:20:14;96071.31;;;5.23;56.46
8253;BME280;61313;48.396;10.008;2023-03-15T04:22:42;96082.88;;;5.13;56.34
8253;BME280;61313;48.396;10.008;2023-03-15T04:25:15;96076.78;;;5.12;57.02
8253;BME280;61313;48.396;10.008;2023-03-15T04:27:40;96083.84;;;5.08;56.79
8253;BME280;61313;48.396;10.008;2023-03-15T04:30:06;96086.56;;;5.04;56.08
8253;BME280;61313;48.396;10.008;2023-03-15T04:32:32;96082.34;;;5.00;56.72
8253;BME280;61313;48.396;10.008;2023-03-15T04:34:57;96085.84;;;4.99;56.63
8253;BME280;61313;48.396;10.008;2023-03-15T04:37:23;96097.94;;;5.00;57.11
8253;BME280;61313;48.396;10.008;2023-03-15T04:39:48;96099.56;;;5.04;55.41
8253;BME280;61313;48.396;10.008;2023-03-15T04:42:14;96093.66;;;4.99;56.00
8253;BME280;61313;48.396;10.008;2023-03-15T04:44:39;96103.13;;;5.00;56.03
8253;BME280;61313;48.396;10.008;2023-03-15T04:47:05;96105.13;;;4.90;56.20
8253;BME280;61313;48.396;10.008;2023-03-15T04:49:30;96112.13;;;4.88;55.97
8253;BME280;61313;48.396;10.008;2023-03-15T04:51:55;96109.63;;;4.83;56.48
8253;BME280;61313;48.396;10.008;2023-03-15T04:54:21;96117.28;;;4.90;56.06
8253;BME280;61313;48.396;10.008;2023-03-15T04:56:47;96114.63;;;4.91;55.41
8253;BME280;61313;48.396;10.008;2023-03-15T04:59:12;96113.53;;;5.00;54.90
8253;BME280;61313;48.396;10.008;2023-03-15T05:01:38;96122.63;;;5.16;54.37
8253;BME280;61313;48.396;10.008;2023-03-15T05:04:03;96128.91;;;5.09;54.94
8253;BME280;61313;48.396;10.008;2023-03-15T05:06:29;96135.44;;;4.91;55.90
8253;BME280;61313;48.396;10.008;2023-03-15T05:08:55;96131.78;;;4.98;55.32
8253;BME280;61313;48.396;10.008;2023-03-15T05:11:20;96134.44;;;4.97;55.22
8253;BME280;61313;48.396;10.008;2023-03-15T05:13:46;96141.56;;;4.88;55.26
8253;BME280;61313;48.396;10.008;2023-03-15T05:16:11;96136.00;;;5.02;55.45
8253;BME280;61313;48.396;10.008;2023-03-15T05:18:37;96133.59;;;4.96;55.54
8253;BME280;61313;48.396;10.008;2023-03-15T05:21:02;96138.41;;;5.10;55.58
8253;BME280;61313;48.396;10.008;2023-03-15T05:23:31;96141.13;;;5.05;54.95
8253;BME280;61313;48.396;10.008;2023-03-15T05:25:58;96141.75;;;5.15;54.86
8253;BME280;61313;48.396;10.008;2023-03-15T05:28:24;96158.25;;;5.14;54.52
8253;BME280;61313;48.396;10.008;2023-03-15T05:30:51;96155.84;;;5.06;54.75
8253;BME280;61313;48.396;10.008;2023-03-15T05:33:18;96156.53;;;5.13;54.72
8253;BME280;61313;48.396;10.008;2023-03-15T05:35:44;96167.28;;;5.01;55.15
8253;BME280;61313;48.396;10.008;2023-03-15T05:38:10;96169.81;;;5.02;55.34
8253;BME280;61313;48.396;10.008;2023-03-15T05:40:43;96174.94;;;5.05;55.49
8253;BME280;61313;48.396;10.008;2023-03-15T05:43:09;96180.94;;;5.07;54.92
8253;BME280;61313;48.396;10.008;2023-03-15T05:45:35;96184.47;;;5.06;54.73
8253;BME280;61313;48.396;10.008;2023-03-15T05:48:01;96187.19;;;5.02;54.68
8253;BME280;61313;48.396;10.008;2023-03-15T05:50:26;96189.03;;;4.97;55.05
8253;BME280;61313;48.396;10.008;2023-03-15T05:52:53;96191.16;;;4.81;55.63
8253;BME280;61313;48.396;10.008;2023-03-15T05:55:19;96193.63;;;4.87;55.61
8253;BME280;61313;48.396;10.008;2023-03-15T05:57:45;96194.66;;;4.80;56.43
8253;BME280;61313;48.396;10.008;2023-03-15T06:00:11;96201.56;;;4.81;56.57
8253;BME280;61313;48.396;10.008;2023-03-15T06:02:42;96199.00;;;4.79;55.70
8253;BME280;61313;48.396;10.008;2023-03-15T06:05:08;96198.81;;;4.87;56.13
8253;BME280;61313;48.396;10.008;2023-03-15T06:07:34;96211.88;;;4.84;56.01
8253;BME280;61313;48.396;10.008;2023-03-15T06:09:59;96203.72;;;4.99;55.63
8253;BME280;61313;48.396;10.008;2023-03-15T06:12:25;96209.69;;;5.03;55.58
8253;BME280;61313;48.396;10.008;2023-03-15T06:14:50;96209.94;;;5.59;54.12
8253;BME280;61313;48.396;10.008;2023-03-15T06:17:16;96209.88;;;6.53;51.26
8253;BME280;61313;48.396;10.008;2023-03-15T06:19:41;96199.75;;;7.49;48.90
8253;BME280;61313;48.396;10.008;2023-03-15T06:22:07;96197.75;;;8.51;46.21
8253;BME280;61313;48.396;10.008;2023-03-15T06:24:33;96199.84;;;9.50;43.50
8253;BME280;61313;48.396;10.008;2023-03-15T06:26:58;96206.34;;;10.20;41.62
8253;BME280;61313;48.396;10.008;2023-03-15T06:29:24;96203.63;;;10.42;40.95
8253;BME280;61313;48.396;10.008;2023-03-15T06:31:50;96207.75;;;9.69;42.31
8253;BME280;61313;48.396;10.008;2023-03-15T06:34:15;96214.44;;;8.71;45.10
8253;BME280;61313;48.396;10.008;2023-03-15T06:36:41;96218.56;;;8.98;44.57
8253;BME280;61313;48.396;10.008;2023-03-15T06:39:07;96207.69;;;10.30;41.46
8253;BME280;61313;48.396;10.008;2023-03-15T06:41:35;96209.94;;;11.30;39.47
8253;BME280;61313;48.396;10.008;2023-03-15T06:44:00;96204.22;;;12.40;36.24
8253;BME280;61313;48.396;10.008;2023-03-15T06:46:26;96205.72;;;13.08;35.27
8253;BME280;61313;48.396;10.008;2023-03-15T06:48:51;96209.91;;;13.28;33.82
8253;BME280;61313;48.396;10.008;2023-03-15T06:51:17;96198.78;;;13.67;33.40
8253;BME280;61313;48.396;10.008;2023-03-15T06:53:42;96211.66;;;14.16;32.33
8253;BME280;61313;48.396;10.008;2023-03-15T06:56:19;96209.47;;;14.52;31.67
8253;BME280;61313;48.396;10.008;2023-03-15T06:58:50;96213.09;;;14.51;30.63
8253;BME280;61313;48.396;10.008;2023-03-15T07:01:16;96207.50;;;14.84;30.51
8253;BME280;61313;48.396;10.008;2023-03-15T07:03:41;96212.38;;;14.90;30.49
8253;BME280;61313;48.396;10.008;2023-03-15T07:06:07;96214.06;;;14.91;29.93
8253;BME280;61313;48.396;10.008;2023-03-15T07:08:33;96219.47;;;15.17;29.56
8253;BME280;61313;48.396;10.008;2023-03-15T07:10:58;96213.31;;;15.43;29.40
8253;BME280;61313;48.396;10.008;2023-03-15T07:13:24;96225.94;;;14.98;29.74
8253;BME280;61313;48.396;10.008;2023-03-15T07:15:53;96222.31;;;15.54;28.71
8253;BME280;61313;48.396;10.008;2023-03-15T07:18:19;96221.16;;;15.45;28.38
8253;BME280;61313;48.396;10.008;2023-03-15T07:20:44;96220.16;;;15.06;29.55
8253;BME280;61313;48.396;10.008;2023-03-15T07:23:10;96220.19;;;14.92;29.58
8253;BME280;61313;48.396;10.008;2023-03-15T07:25:35;96218.88;;;14.57;30.38
8253;BME280;61313;48.396;10.008;2023-03-15T07:28:01;96221.19;;;14.33;30.57
8253;BME280;61313;48.396;10.008;2023-03-15T07:30:27;96224.09;;;14.14;31.36
8253;BME280;61313;48.396;10.008;2023-03-15T07:32:52;96219.97;;;14.25;31.49
8253;BME280;61313;48.396;10.008;2023-03-15T07:35:18;96229.47;;;13.98;31.21
8253;BME280;61313;48.396;10.008;2023-03-15T07:37:43;96225.69;;;13.58;32.37
8253;BME280;61313;48.396;10.008;2023-03-15T07:40:09;96226.50;;;13.74;31.91
8253;BME280;61313;48.396;10.008;2023-03-15T07:42:37;96224.66;;;13.91;31.20
8253;BME280;61313;48.396;10.008;2023-03-15T07:45:07;96232.19;;;13.83;31.00
8253;BME280;61313;48.396;10.008;2023-03-15T07:47:33;96228.34;;;13.58;31.25
8253;BME280;61313;48.396;10.008;2023-03-15T07:49:58;96230.81;;;12.83;32.46
8253;BME280;61313;48.396;10.008;2023-03-15T07:52:24;96229.66;;;12.24;33.82
8253;BME280;61313;48.396;10.008;2023-03-15T07:54:50;96225.50;;;13.15;32.25
8253;BME280;61313;48.396;10.008;2023-03-15T07:57:16;96224.44;;;13.03;31.96
8253;BME280;61313;48.396;10.008;2023-03-15T07:59:41;96225.00;;;13.24;31.56
8253;BME280;61313;48.396;10.008;2023-03-15T08:02:12;96222.28;;;13.26;31.36
8253;BME280;61313;48.396;10.008;2023-03-15T08:04:38;96232.25;;;13.51;31.20
8253;BME280;61313;48.396;10.008;2023-03-15T08:07:04;96235.91;;;13.64;31.26
8253;BME280;61313;48.396;10.008;2023-03-15T08:09:30;96226.63;;;13.87;29.79
8253;BME280;61313;48.396;10.008;2023-03-15T08:11:57;96236.66;;;13.36;31.50
8253;BME280;61313;48.396;10.008;2023-03-15T08:14:22;96241.25;;;13.32;31.90
8253;BME280;61313;48.396;10.008;2023-03-15T08:16:49;96239.88;;;13.41;31.24
8253;BME280;61313;48.396;10.008;2023-03-15T08:19:15;96234.50;;;13.73;30.65
8253;BME280;61313;48.396;10.008;2023-03-15T08:21:40;96225.91;;;14.14;29.71
8253;BME280;61313;48.396;10.008;2023-03-15T08:24:10;96231.53;;;14.08;29.67
8253;BME280;61313;48.396;10.008;2023-03-15T08:26:35;96225.59;;;14.47;29.80
8253;BME280;61313;48.396;10.008;2023-03-15T08:29:00;96219.28;;;14.50;29.65
8253;BME280;61313;48.396;10.008;2023-03-15T08:31:26;96227.44;;;14.61;29.80
8253;BME280;61313;48.396;10.008;2023-03-15T08:33:52;96229.34;;;15.00;28.84
8253;BME280;61313;48.396;10.008;2023-03-15T08:36:18;96231.78;;;15.03;28.73
8253;BME280;61313;48.396;10.008;2023-03-15T08:38:43;96233.53;;;14.76;28.35
8253;BME280;61313;48.396;10.008;2023-03-15T08:41:09;96233.38;;;14.65;28.19
8253;BME280;61313;48.396;10.008;2023-03-15T08:43:34;96233.81;;;14.71;28.35
8253;BME280;61313;48.396;10.008;2023-03-15T08:45:59;96235.13;;;14.50;27.78
8253;BME280;61313;48.396;10.008;2023-03-15T08:48:25;96232.69;;;14.47;28.07
8253;BME280;61313;48.396;10.008;2023-03-15T08:50:51;96241.84;;;14.70;28.20
8253;BME280;61313;48.396;10.008;2023-03-15T08:53:16;96255.50;;;14.33;27.84
8253;BME280;61313;48.396;10.008;2023-03-15T08:55:42;96248.06;;;14.26;28.67
8253;BME280;61313;48.396;10.008;2023-03-15T08:58:07;96242.28;;;14.48;28.37
8253;BME280;61313;48.396;10.008;2023-03-15T09:00:33;96250.22;;;14.19;28.57
8253;BME280;61313;48.396;10.008;2023-03-15T09:02:58;96247.69;;;13.73;30.04
8253;BME280;61313;48.396;10.008;2023-03-15T09:05:24;96254.13;;;13.83;29.65
8253;BME280;61313;48.396;10.008;2023-03-15T09:07:50;96258.03;;;14.06;28.73
8253;BME280;61313;48.396;10.008;2023-03-15T09:10:18;96254.97;;;14.57;28.00
8253;BME280;61313;48.396;10.008;2023-03-15T09:12:46;96256.94;;;14.53;27.84
8253;BME280;61313;48.396;10.008;2023-03-15T09:15:12;96252.25;;;14.58;28.07
8253;BME280;61313;48.396;10.008;2023-03-15T09:17:38;96255.06;;;14.70;28.24
8253;BME280;61313;48.396;10.008;2023-03-15T09:20:05;96254.84;;;14.44;27.94
8253;BME280;61313;48.396;10.008;2023-03-15T09:22:38;96249.59;;;14.58;27.81
8253;BME280;61313;48.396;10.008;2023-03-15T09:25:04;96254.84;;;14.87;27.45
8253;BME280;61313;48.396;10.008;2023-03-15T09:27:30;96264.59;;;14.72;28.40
8253;BME280;61313;48.396;10.008;2023-03-15T09:29:56;96255.81;;;14.72;27.83
8253;BME280;61313;48.396;10.008;2023-03-15T09:32:21;96250.47;;;15.00;27.72
8253;BME280;61313;48.396;10.008;2023-03-15T09:34:47;96263.75;;;14.72;27.90
8253;BME280;61313;48.396;10.008;2023-03-15T09:37:12;96254.09;;;14.42;27.99
8253;BME280;61313;48.396;10.008;2023-03-15T09:39:38;96254.22;;;14.55;28.21
8253;BME280;61313;48.396;10.008;2023-03-15T09:42:10;96260.28;;;14.27;28.29
8253;BME280;61313;48.396;10.008;2023-03-15T09:44:47;96258.72;;;14.53;27.74
8253;BME280;61313;48.396;10.008;2023-03-15T09:50:23;96256.41;;;13.89;29.19
8253;BME280;61313;48.396;10.008;2023-03-15T09:52:58;96260.50;;;14.38;28.20
8253;BME280;61313;48.396;10.008;2023-03-15T09:55:26;96264.38;;;14.90;27.47
8253;BME280;61313;48.396;10.008;2023-03-15T09:58:07;96261.81;;;14.31;28.39
8253;BME280;61313;48.396;10.008;2023-03-15T10:00:43;96260.91;;;14.75;27.02
8253;BME280;61313;48.396;10.008;2023-03-15T10:04:01;96252.91;;;14.76;26.73
8253;BME280;61313;48.396;10.008;2023-03-15T10:06:20;96255.34;;;14.79;26.51
8253;BME280;61313;48.396;10.008;2023-03-15T10:08:50;96260.44;;;14.68;26.96
8253;BME280;61313;48.396;10.008;2023-03-15T10:11:44;96254.28;;;14.53;26.90
8253;BME280;61313;48.396;10.008;2023-03-15T10:16:45;96255.88;;;14.13;26.86
8253;BME280;61313;48.396;10.008;2023-03-15T10:19:16;96250.13;;;14.49;25.73
8253;BME280;61313;48.396;10.008;2023-03-15T10:24:19;96259.38;;;14.71;25.80
8253;BME280;61313;48.396;10.008;2023-03-15T10:26:48;96258.16;;;14.91;25.27
8253;BME280;61313;48.396;10.008;2023-03-15T10:29:18;96261.47;;;14.80;24.84
8253;BME280;61313;48.396;10.008;2023-03-15T10:31:45;96248.34;;;15.20;24.82
8253;BME280;61313;48.396;10.008;2023-03-15T10:34:13;96256.72;;;15.27;25.74
8253;BME280;61313;48.396;10.008;2023-03-15T10:36:50;96247.97;;;15.12;25.92
8253;BME280;61313;48.396;10.008;2023-03-15T10:39:20;96263.00;;;14.70;25.94
8253;BME280;61313;48.396;10.008;2023-03-15T10:41:47;96257.03;;;14.66;25.95
8253;BME280;61313;48.396;10.008;2023-03-15T10:44:22;96250.91;;;14.37;25.96
8253;BME280;61313;48.396;10.008;2023-03-15T10:47:04;96251.59;;;13.96;26.35
8253;BME280;61313;48.396;10.008;2023-03-15T10:49:38;96254.16;;;13.67;26.83
8253;BME280;61313;48.396;10.008;2023-03-15T10:52:04;96258.09;;;13.30;26.46
8253;BME280;61313;48.396;10.008;2023-03-15T10:54:32;96257.72;;;13.20;25.85
8253;BME280;61313;48.396;10.008;2023-03-15T10:57:14;96247.03;;;13.07;26.54
8253;BME280;61313;48.396;10.008;2023-03-15T11:00:02;96245.25;;;12.92;26.96
8253;BME280;61313;48.396;10.008;2023-03-15T11:02:51;96241.44;;;12.98;26.13
8253;BME280;61313;48.396;10.008;2023-03-15T11:05:29;96245.75;;;12.99;25.95
8253;BME280;61313;48.396;10.008;2023-03-15T11:07:57;96249.41;;;13.12;26.04
8253;BME280;61313;48.396;10.008;2023-03-15T11:10:25;96245.00;;;13.28;26.78
8253;BME280;61313;48.396;10.008;2023-03-15T11:15:38;96232.31;;;13.65;25.39
8253;BME280;61313;48.396;10.008;2023-03-15T11:18:03;96240.38;;;13.48;26.03
8253;BME280;61313;48.396;10.008;2023-03-15T11:20:38;96237.72;;;13.02;25.63
8253;BME280;61313;48.396;10.008;2023-03-15T11:23:16;96228.69;;;12.74;27.63
8253;BME280;61313;48.396;10.008;2023-03-15T11:25:43;96230.22;;;12.78;27.67
8253;BME280;61313;48.396;10.008;2023-03-15T11:28:26;96232.09;;;12.60;28.07
8253;BME280;61313;48.396;10.008;2023-03-15T11:30:54;96234.47;;;12.65;28.86
8253;BME280;61313;48.396;10.008;2023-03-15T11:35:55;96212.78;;;12.91;27.35
8253;BME280;61313;48.396;10.008;2023-03-15T11:38:38;96218.00;;;12.77;27.67
8253;BME280;61313;48.396;10.008;2023-03-15T11:44:08;96210.25;;;12.74;27.68
8253;BME280;61313;48.396;10.008;2023-03-15T11:47:05;96207.97;;;12.03;28.73
8253;BME280;61313;48.396;10.008;2023-03-15T11:49:52;96216.28;;;11.95;28.87
8253;BME280;61313;48.396;10.008;2023-03-15T11:52:20;96211.56;;;12.18;28.25
8253;BME280;61313;48.396;10.008;2023-03-15T11:54:47;96210.84;;;12.47;28.20
8253;BME280;61313;48.396;10.008;2023-03-15T11:59:56;96189.34;;;13.49;28.12
8253;BME280;61313;48.396;10.008;2023-03-15T12:04:51;96181.44;;;13.49;26.29
8253;BME280;61313;48.396;10.008;2023-03-15T12:09:54;96179.97;;;13.73;23.48
8253;BME280;61313;48.396;10.008;2023-03-15T12:20:38;96163.84;;;13.49;24.79
8253;BME280;61313;48.396;10.008;2023-03-15T12:25:44;96161.50;;;13.29;24.70
8253;BME280;61313;48.396;10.008;2023-03-15T12:28:24;96171.53;;;13.22;24.88
8253;BME280;61313;48.396;10.008;2023-03-15T12:30:54;96178.78;;;12.57;26.86
8253;BME280;61313;48.396;10.008;2023-03-15T12:33:21;96192.88;;;12.06;26.77
8253;BME280;61313;48.396;10.008;2023-03-15T12:35:48;96184.38;;;11.84;25.49
8253;BME280;61313;48.396;10.008;2023-03-15T12:38:16;96191.59;;;11.98;25.42
8253;BME280;61313;48.396;10.008;2023-03-15T12:40:52;96197.34;;;11.89;25.66
8253;BME280;61313;48.396;10.008;2023-03-15T12:44:00;96202.97;;;11.63;25.64
8253;BME280;61313;48.396;10.008;2023-03-15T12:51:58;96187.25;;;11.79;27.80
8253;BME280;61313;48.396;10.008;2023-03-15T12:54:50;96199.00;;;12.23;27.98
8253;BME280;61313;48.396;10.008;2023-03-15T12:57:26;96183.69;;;11.98;27.90
8253;BME280;61313;48.396;10.008;2023-03-15T13:02:44;96186.34;;;12.14;25.40
8253;BME280;61313;48.396;10.008;2023-03-15T13:05:14;96184.66;;;12.13;24.18
8253;BME280;61313;48.396;10.008;2023-03-15T13:07:53;96190.91;;;11.77;24.66
8253;BME280;61313;48.396;10.008;2023-03-15T13:10:31;96190.97;;;11.93;23.60
8253;BME280;61313;48.396;10.008;2023-03-15T13:15:43;96184.44;;;12.33;24.52
8253;BME280;61313;48.396;10.008;2023-03-15T13:18:21;96191.03;;;12.24;23.78
8253;BME280;61313;48.396;10.008;2023-03-15T13:23:38;96197.94;;;11.94;24.71
8253;BME280;61313;48.396;10.008;2023-03-15T13:29:17;96200.72;;;11.38;24.69
8253;BME280;61313;48.396;10.008;2023-03-15T13:31:45;96192.63;;;11.60;25.02
8253;BME280;61313;48.396;10.008;2023-03-15T13:34:20;96186.25;;;11.82;25.17
8253;BME280;61313;48.396;10.008;2023-03-15T13:36:57;96178.88;;;12.06;24.37
8253;BME280;61313;48.396;10.008;2023-03-15T13:39:26;96185.00;;;12.22;25.04
8253;BME280;61313;48.396;10.008;2023-03-15T13:42:00;96178.91;;;12.22;24.54
8253;BME280;61313;48.396;10.008;2023-03-15T13:44:28;96191.19;;;12.05;25.72
8253;BME280;61313;48.396;10.008;2023-03-15T13:46:54;96189.28;;;12.41;25.76
8253;BME280;61313;48.396;10.008;2023-03-15T13:49:21;96193.25;;;12.32;26.21
8253;BME280;61313;48.396;10.008;2023-03-15T13:51:47;96194.97;;;12.33;26.47
8253;BME280;61313;48.396;10.008;2023-03-15T13:54:27;96198.50;;;12.32;25.99
8253;BME280;61313;48.396;10.008;2023-03-15T13:57:04;96192.66;;;12.27;25.79
8253;BME280;61313;48.396;10.008;2023-03-15T13:59:38;96189.97;;;12.28;25.60
8253;BME280;61313;48.396;10.008;2023-03-15T14:02:14;96205.59;;;12.47;25.33
8253;BME280;61313;48.396;10.008;2023-03-15T14:04:40;96201.56;;;11.91;26.47
8253;BME280;61313;48.396;10.008;2023-03-15T14:07:22;96201.22;;;12.31;26.79
8253;BME280;61313;48.396;10.008;2023-03-15T14:12:45;96199.22;;;11.85;27.42